createdAt,value
2023-03-21T00:04:51.366Z,101447.13
2023-03-21T00:10:04.798Z,101453.88
2023-03-21T00:15:11.160Z,101439.50
2023-03-21T00:20:17.916Z,101435.28
2023-03-21T00:25:22.110Z,101437.78
2023-03-21T00:30:26.107Z,101444.47
2023-03-21T00:40:55.099Z,101429.25
2023-03-21T00:46:03.751Z,101431.88
2023-03-21T00:51:22.478Z,101437.88
2023-03-21T00:56:26.332Z,101436.09
2023-03-21T01:01:33.035Z,101434.53
2023-03-21T01:06:41.740Z,101435.50
2023-03-21T01:11:46.404Z,101430.63
2023-03-21T01:16:55.054Z,101427.38
2023-03-21T01:21:59.322Z,101418.97
2023-03-21T01:27:04.361Z,101433.63
2023-03-21T01:32:08.540Z,101437.00
2023-03-21T01:37:12.786Z,101445.63
2023-03-21T01:42:23.315Z,101444.28
2023-03-21T01:47:28.001Z,101439.69
2023-03-21T01:52:42.782Z,101444.50
2023-03-21T01:58:05.903Z,101444.88
2023-03-21T02:03:34.964Z,101417.66
2023-03-21T02:08:59.406Z,101457.59
2023-03-21T02:14:06.705Z,101455.03
2023-03-21T02:19:32.003Z,101469.53
2023-03-21T02:24:59.703Z,101465.44
2023-03-21T02:30:50.891Z,101468.06
2023-03-21T02:36:29.620Z,101469.75
2023-03-21T02:42:06.352Z,101484.28
2023-03-21T02:47:27.512Z,101487.72
2023-03-21T02:52:39.460Z,101488.50
2023-03-21T02:57:51.079Z,101480.69
2023-03-21T03:03:08.175Z,101504.56
2023-03-21T03:08:35.724Z,101493.75
2023-03-21T03:13:51.754Z,101488.94
2023-03-21T03:19:00.780Z,101502.69
2023-03-21T03:24:21.326Z,101501.88
2023-03-21T03:29:29.526Z,101503.59
2023-03-21T03:34:41.805Z,101486.59
2023-03-21T03:40:27.497Z,101489.19
2023-03-21T03:45:59.313Z,101486.66
2023-03-21T03:51:20.223Z,101501.97
2023-03-21T03:56:41.899Z,101488.38
2023-03-21T04:01:46.617Z,101481.53
2023-03-21T04:06:54.173Z,101490.81
2023-03-21T04:12:00.486Z,101483.75
2023-03-21T04:17:05.711Z,101481.16
2023-03-21T04:22:10.263Z,101483.72
2023-03-21T04:27:17.259Z,101481.00
2023-03-21T04:32:40.560Z,101489.50
2023-03-21T04:37:49.445Z,101498.97
2023-03-21T04:42:53.524Z,101509.22
2023-03-21T04:47:58.160Z,101496.44
2023-03-21T04:53:02.145Z,101497.28
2023-03-21T04:58:07.013Z,101494.69
2023-03-21T05:03:11.127Z,101500.56
2023-03-21T05:08:16.239Z,101501.41
2023-03-21T05:13:20.379Z,101511.78
2023-03-21T05:18:26.973Z,101517.84
2023-03-21T05:23:41.253Z,101464.91
2023-03-21T05:28:45.112Z,101504.03
2023-03-21T05:33:49.831Z,101503.22
2023-03-21T05:38:55.868Z,101504.16
2023-03-21T05:44:01.827Z,101458.88
2023-03-21T05:49:05.985Z,101498.63
2023-03-21T05:54:10.957Z,101510.63
2023-03-21T05:59:15.074Z,101508.97
2023-03-21T06:04:21.605Z,101500.25
2023-03-21T06:09:26.769Z,101507.13
2023-03-21T06:14:35.252Z,101508.50
2023-03-21T06:19:52.948Z,101498.19
2023-03-21T06:25:23.178Z,101488.84
2023-03-21T06:30:27.950Z,101519.44
2023-03-21T06:35:56.462Z,101502.31
2023-03-21T06:41:00.885Z,101508.94
2023-03-21T06:46:08.842Z,101531.25
2023-03-21T06:51:16.173Z,101517.66
2023-03-21T06:56:33.997Z,101511.78
2023-03-21T07:01:40.141Z,101518.56
2023-03-21T07:06:44.660Z,101523.16
2023-03-21T07:11:48.887Z,101525.78
2023-03-21T07:16:53.317Z,101511.59
2023-03-21T07:21:57.284Z,101483.47
2023-03-21T07:27:01.514Z,101526.56
2023-03-21T07:32:08.157Z,101527.50
2023-03-21T07:37:12.128Z,101474.06
2023-03-21T07:42:16.132Z,101530.84
2023-03-21T07:47:22.433Z,101534.41
2023-03-21T07:52:26.455Z,101534.97
2023-03-21T07:57:30.537Z,101539.97
2023-03-21T08:02:34.473Z,101533.63
2023-03-21T08:07:38.400Z,101532.50
2023-03-21T08:12:42.494Z,101543.56
2023-03-21T08:17:46.472Z,101541.38
2023-03-21T08:22:51.468Z,101551.22
2023-03-21T08:27:55.570Z,101551.41
2023-03-21T08:33:01.780Z,101565.03
2023-03-21T08:38:14.153Z,101561.69
2023-03-21T08:43:18.106Z,101565.47
2023-03-21T08:48:22.660Z,101568.03
2023-03-21T08:53:26.688Z,101580.06
2023-03-21T08:58:31.220Z,101580.97
2023-03-21T09:03:35.052Z,101579.44
2023-03-21T09:08:39.878Z,101569.25
2023-03-21T09:13:43.834Z,101587.19
2023-03-21T09:18:56.233Z,101581.16
2023-03-21T09:24:01.531Z,101586.25
2023-03-21T09:29:06.502Z,101581.03
2023-03-21T09:34:10.555Z,101580.97
2023-03-21T09:39:14.941Z,101583.63
2023-03-21T09:50:55.327Z,101593.13
2023-03-21T09:56:03.082Z,101595.84
2023-03-21T10:01:22.852Z,101589.13
2023-03-21T10:06:31.564Z,101594.34
2023-03-21T10:11:53.190Z,101598.66
2023-03-21T10:17:26.693Z,101587.63
2023-03-21T10:22:31.280Z,101597.81
2023-03-21T10:27:37.595Z,101593.50
2023-03-21T10:32:42.176Z,101596.06
2023-03-21T10:37:47.567Z,101587.56
2023-03-21T10:42:51.771Z,101592.72
2023-03-21T10:47:55.956Z,101592.78
2023-03-21T10:53:01.535Z,101533.22
2023-03-21T10:58:11.543Z,101598.84
2023-03-21T11:03:32.093Z,101604.81
2023-03-21T11:09:06.014Z,101610.78
2023-03-21T11:14:37.810Z,101616.81
2023-03-21T11:19:41.931Z,101601.47
2023-03-21T11:24:52.182Z,101600.63
2023-03-21T11:29:58.847Z,101615.09
2023-03-21T11:35:06.588Z,101610.81
2023-03-21T11:40:34.222Z,101617.66
2023-03-21T11:45:39.312Z,101621.94
2023-03-21T11:50:48.312Z,101627.91
2023-03-21T11:55:51.962Z,101633.88
2023-03-21T12:01:17.064Z,101632.19
2023-03-21T12:06:26.194Z,101636.47
2023-03-21T12:11:56.264Z,101640.75
2023-03-21T12:17:11.689Z,101642.47
2023-03-21T12:22:30.649Z,101652.75
2023-03-21T12:27:53.900Z,101658.75
2023-03-21T12:33:03.392Z,101663.03
2023-03-21T12:38:28.858Z,101665.56
2023-03-21T12:43:54.797Z,101678.38
2023-03-21T12:49:03.673Z,101675.00
2023-03-21T12:54:33.699Z,101674.16
2023-03-21T12:59:44.292Z,101673.31
2023-03-21T13:05:05.274Z,101669.84
2023-03-21T13:10:21.677Z,101682.63
2023-03-21T13:15:25.641Z,101682.63
2023-03-21T13:20:58.227Z,101677.47
2023-03-21T13:26:02.557Z,101679.94
2023-03-21T13:31:33.898Z,101690.94
2023-03-21T13:36:49.314Z,101690.81
2023-03-21T13:41:55.454Z,101693.28
2023-03-21T13:47:23.579Z,101699.97
2023-03-21T13:52:29.351Z,101687.91
2023-03-21T13:57:34.407Z,101696.31
2023-03-21T14:02:51.390Z,101692.75
2023-03-21T14:08:12.386Z,101712.94
2023-03-21T14:13:21.946Z,101684.63
2023-03-21T14:18:51.873Z,101709.28
2023-03-21T14:23:59.020Z,101706.50
2023-03-21T14:29:25.195Z,101708.91
2023-03-21T14:34:32.879Z,101729.94
2023-03-21T14:39:37.003Z,101731.44
2023-03-21T14:44:54.306Z,101733.78
2023-03-21T14:50:01.918Z,101725.13
2023-03-21T14:55:16.389Z,101668.34
2023-03-21T15:00:30.498Z,101727.88
2023-03-21T15:05:38.151Z,101728.41
2023-03-21T15:10:43.135Z,101726.41
2023-03-21T15:15:48.763Z,101732.88
2023-03-21T15:20:54.961Z,101731.75
2023-03-21T15:25:59.514Z,101736.59
2023-03-21T15:31:05.338Z,101736.94
2023-03-21T15:36:11.427Z,101736.66
2023-03-21T15:41:22.263Z,101738.00
2023-03-21T15:46:51.959Z,101735.44
2023-03-21T15:52:14.235Z,101728.19
2023-03-21T15:57:23.419Z,101754.47
2023-03-21T16:02:32.285Z,101732.88
2023-03-21T16:07:36.318Z,101749.28
2023-03-21T16:12:40.385Z,101757.03
2023-03-21T16:17:53.053Z,101761.91
2023-03-21T16:22:57.174Z,101754.31
2023-03-21T16:28:01.330Z,101767.66
2023-03-21T16:33:05.188Z,101745.13
2023-03-21T16:38:13.329Z,101730.94
2023-03-21T16:43:17.094Z,101695.91
2023-03-21T16:48:21.096Z,101760.13
2023-03-21T16:53:25.020Z,101757.13
2023-03-21T16:58:30.411Z,101753.97
2023-03-21T17:03:35.440Z,101761.16
2023-03-21T17:08:39.330Z,101679.50
2023-03-21T17:13:48.064Z,101757.16
2023-03-21T17:18:52.768Z,101765.25
2023-03-21T17:23:57.354Z,101768.19
2023-03-21T17:29:01.610Z,101772.03
2023-03-21T17:34:05.437Z,101768.53
2023-03-21T17:39:15.459Z,101769.97
2023-03-21T17:44:21.153Z,101761.31
2023-03-21T17:49:25.023Z,101777.03
2023-03-21T17:54:29.063Z,101782.38
2023-03-21T17:59:33.146Z,101769.16
2023-03-21T18:04:37.158Z,101752.53
2023-03-21T18:09:41.114Z,101767.66
2023-03-21T18:14:46.220Z,101783.22
2023-03-21T18:19:50.663Z,101727.50
2023-03-21T18:24:56.843Z,101704.13
2023-03-21T18:30:28.570Z,101765.91
2023-03-21T18:35:25.402Z,101781.81
2023-03-21T18:40:30.546Z,101720.34
2023-03-21T18:45:34.620Z,101787.72
2023-03-21T18:50:38.542Z,101790.91
2023-03-21T18:55:47.251Z,101795.75
2023-03-21T19:00:54.111Z,101774.19
2023-03-21T19:06:01.352Z,101793.78
2023-03-21T19:11:06.705Z,101794.97
2023-03-21T19:16:11.664Z,101808.75
2023-03-21T19:21:17.577Z,101798.19
2023-03-21T19:26:23.567Z,101790.84
2023-03-21T19:31:27.767Z,101791.97
2023-03-21T19:36:34.616Z,101797.00
2023-03-21T19:41:40.483Z,101792.84
2023-03-21T19:46:45.029Z,101788.88
2023-03-21T19:51:49.286Z,101788.41
2023-03-21T19:56:53.421Z,101797.19
2023-03-21T20:02:08.880Z,101794.00
2023-03-21T20:07:21.406Z,101808.63
2023-03-21T20:12:25.417Z,101810.06
2023-03-21T20:17:29.485Z,101802.25
2023-03-21T20:23:03.396Z,101807.97
2023-03-21T20:28:14.607Z,101805.84
2023-03-21T20:33:20.677Z,101802.75
2023-03-21T20:38:24.757Z,101789.78
2023-03-21T20:44:20.492Z,101794.28
2023-03-21T20:48:53.513Z,101795.34
2023-03-21T20:53:57.773Z,101788.94
2023-03-21T20:59:15.793Z,101790.53
2023-03-21T21:04:46.724Z,101786.28
2023-03-21T21:09:54.420Z,101780.34
2023-03-21T21:14:58.301Z,101771.66
2023-03-21T21:20:12.257Z,101786.88
2023-03-21T21:25:17.672Z,101794.00
2023-03-21T21:30:32.733Z,101773.78
2023-03-21T21:35:37.604Z,101780.06
2023-03-21T21:40:41.570Z,101778.75
2023-03-21T21:45:50.232Z,101786.06
2023-03-21T21:50:54.938Z,101779.09
2023-03-21T21:55:58.717Z,101792.94
2023-03-21T22:01:02.951Z,101785.88
2023-03-21T22:06:07.774Z,101789.19
2023-03-21T22:11:11.786Z,101789.88
2023-03-21T22:16:15.622Z,101795.69
2023-03-21T22:21:19.634Z,101793.00
2023-03-21T22:26:23.890Z,101789.88
2023-03-21T22:31:27.938Z,101774.91
2023-03-21T22:36:32.534Z,101789.69
2023-03-21T22:41:36.546Z,101791.16
2023-03-21T22:46:41.475Z,101803.41
2023-03-21T22:51:45.775Z,101801.97
2023-03-21T22:56:49.853Z,101815.97
2023-03-21T23:01:53.958Z,101813.00
2023-03-21T23:06:57.894Z,101821.97
2023-03-21T23:12:02.045Z,101828.03
2023-03-21T23:17:05.957Z,101836.72
2023-03-21T23:22:09.942Z,101825.91
2023-03-21T23:27:14.942Z,101820.34
2023-03-21T23:32:19.334Z,101826.81
2023-03-21T23:37:25.631Z,101823.13
2023-03-21T23:42:31.493Z,101826.53
2023-03-21T23:47:35.350Z,101825.09
2023-03-21T23:52:42.163Z,101831.72
2023-03-21T23:57:46.071Z,101822.31
